AEA6048 LEPA-LEMD
Flight info
| Callsign | AEA6048 |
|---|---|
| Flight time | 0h 56m |
| Altitude | 31000 |
| Route | EPAMA N733 PRADO |
| Aircraft | B738/M-SDE2E3FGHIRWXY/LB1 |
Departure
| Time | 2026-05-07 12:12 |
|---|---|
| Airport | Palma de Mallorca Airport (LEPA) |
Arrival
| Time | 2026-05-07 13:08 |
|---|---|
| Airport | Adolfo Suárez Madrid–Barajas Airport (LEMD) |
| Time | Latitude | Longitude | Altitude | Speed | Heading |
|---|---|---|---|---|---|
| 2026-05-07 11:46 | 39.54651 | 2.73447 | 29 ft | 0 kts | 253° |
| 2026-05-07 12:02 | 39.54657 | 2.73465 | 29 ft | 2 kts | 241° |
| 2026-05-07 12:02 | 39.54666 | 2.73482 | 29 ft | 2 kts | 219° |
| 2026-05-07 12:03 | 39.54681 | 2.73492 | 29 ft | 2 kts | 189° |
| 2026-05-07 12:03 | 39.54697 | 2.73492 | 29 ft | 2 kts | 166° |
| 2026-05-07 12:03 | 39.54710 | 2.73487 | 29 ft | 1 kts | 154° |
| 2026-05-07 12:03 | 39.54713 | 2.73485 | 29 ft | 0 kts | 151° |
| 2026-05-07 12:06 | 39.54708 | 2.73489 | 29 ft | 4 kts | 149° |
| 2026-05-07 12:07 | 39.54664 | 2.73524 | 29 ft | 9 kts | 148° |
| 2026-05-07 12:07 | 39.54643 | 2.73540 | 29 ft | 0 kts | 148° |
| 2026-05-07 12:07 | 39.54634 | 2.73546 | 29 ft | 4 kts | 160° |
| 2026-05-07 12:07 | 39.54598 | 2.73531 | 29 ft | 9 kts | 219° |
| 2026-05-07 12:08 | 39.54545 | 2.73432 | 29 ft | 18 kts | 238° |
| 2026-05-07 12:08 | 39.54473 | 2.73278 | 29 ft | 21 kts | 238° |
| 2026-05-07 12:08 | 39.54447 | 2.73223 | 29 ft | 5 kts | 233° |
| 2026-05-07 12:08 | 39.54417 | 2.73211 | 29 ft | 5 kts | 168° |
| 2026-05-07 12:09 | 39.54383 | 2.73226 | 29 ft | 5 kts | 178° |
| 2026-05-07 12:09 | 39.54346 | 2.73188 | 29 ft | 9 kts | 234° |
| 2026-05-07 12:09 | 39.54307 | 2.73103 | 29 ft | 13 kts | 239° |
| 2026-05-07 12:09 | 39.54250 | 2.73049 | 29 ft | 2 kts | 182° |
| 2026-05-07 12:10 | 39.54238 | 2.73061 | 29 ft | 4 kts | 133° |
| 2026-05-07 12:10 | 39.54224 | 2.73107 | 29 ft | 7 kts | 94° |
| 2026-05-07 12:10 | 39.54221 | 2.73175 | 29 ft | 7 kts | 101° |
| 2026-05-07 12:10 | 39.54212 | 2.73240 | 29 ft | 7 kts | 98° |
| 2026-05-07 12:11 | 39.54208 | 2.73309 | 29 ft | 9 kts | 87° |
| 2026-05-07 12:11 | 39.54231 | 2.73390 | 29 ft | 10 kts | 60° |
| 2026-05-07 12:11 | 39.54339 | 2.73620 | 29 ft | 72 kts | 58° |
| 2026-05-07 12:11 | 39.54755 | 2.74503 | 76 ft | 150 kts | 60° |
| 2026-05-07 12:12 | 39.55335 | 2.75718 | 932 ft | 165 kts | 60° |
| 2026-05-07 12:12 | 39.55954 | 2.77044 | 1984 ft | 178 kts | 61° |
| 2026-05-07 12:12 | 39.56598 | 2.78441 | 3015 ft | 180 kts | 60° |
| 2026-05-07 12:12 | 39.57268 | 2.79864 | 3825 ft | 195 kts | 61° |
| 2026-05-07 12:13 | 39.58005 | 2.81428 | 4378 ft | 210 kts | 60° |
| 2026-05-07 12:13 | 39.58776 | 2.83065 | 5245 ft | 213 kts | 60° |
| 2026-05-07 12:13 | 39.59557 | 2.84724 | 6106 ft | 219 kts | 60° |
| 2026-05-07 12:13 | 39.60363 | 2.86444 | 6883 ft | 226 kts | 60° |
| 2026-05-07 12:14 | 39.61183 | 2.88190 | 7730 ft | 228 kts | 60° |
| 2026-05-07 12:14 | 39.62018 | 2.89971 | 8533 ft | 234 kts | 60° |
| 2026-05-07 12:14 | 39.63126 | 2.91527 | 9318 ft | 243 kts | 29° |
| 2026-05-07 12:14 | 39.64784 | 2.91921 | 10096 ft | 250 kts | 350° |
| 2026-05-07 12:15 | 39.66332 | 2.90922 | 10796 ft | 254 kts | 312° |
| 2026-05-07 12:15 | 39.67143 | 2.88957 | 11534 ft | 252 kts | 280° |
| 2026-05-07 12:15 | 39.67417 | 2.86723 | 12368 ft | 251 kts | 274° |
| 2026-05-07 12:15 | 39.67696 | 2.84469 | 13168 ft | 254 kts | 277° |
| 2026-05-07 12:16 | 39.68022 | 2.82199 | 13946 ft | 257 kts | 276° |
| 2026-05-07 12:16 | 39.68305 | 2.79902 | 14679 ft | 258 kts | 274° |
| 2026-05-07 12:16 | 39.68491 | 2.77573 | 15408 ft | 260 kts | 270° |
| 2026-05-07 12:16 | 39.68552 | 2.75214 | 16128 ft | 264 kts | 268° |
| 2026-05-07 12:17 | 39.68952 | 2.72793 | 16429 ft | 293 kts | 295° |
| 2026-05-07 12:17 | 39.70190 | 2.70543 | 16650 ft | 319 kts | 303° |
| 2026-05-07 12:17 | 39.71313 | 2.67958 | 16825 ft | 339 kts | 291° |
| 2026-05-07 12:17 | 39.71938 | 2.66049 | 16940 ft | 354 kts | 289° |
| 2026-05-07 12:18 | 39.72865 | 2.62982 | 17110 ft | 375 kts | 289° |
| 2026-05-07 12:18 | 39.73840 | 2.59767 | 17428 ft | 389 kts | 289° |
| 2026-05-07 12:18 | 39.74871 | 2.56484 | 18058 ft | 394 kts | 290° |
| 2026-05-07 12:18 | 39.75941 | 2.53183 | 18733 ft | 396 kts | 290° |
| 2026-05-07 12:19 | 39.77030 | 2.49885 | 19443 ft | 396 kts | 290° |
| 2026-05-07 12:19 | 39.78125 | 2.46595 | 20150 ft | 396 kts | 290° |
| 2026-05-07 12:19 | 39.79221 | 2.43303 | 20842 ft | 397 kts | 289° |
| 2026-05-07 12:19 | 39.80319 | 2.39997 | 21497 ft | 399 kts | 289° |
| 2026-05-07 12:20 | 39.81418 | 2.36681 | 22126 ft | 400 kts | 288° |
| 2026-05-07 12:20 | 39.82178 | 2.33232 | 22706 ft | 394 kts | 273° |
| 2026-05-07 12:20 | 39.82175 | 2.29736 | 23316 ft | 389 kts | 258° |
| 2026-05-07 12:20 | 39.81534 | 2.26339 | 23889 ft | 387 kts | 251° |
| 2026-05-07 12:21 | 39.80745 | 2.22996 | 24368 ft | 388 kts | 250° |
| 2026-05-07 12:21 | 39.79922 | 2.19648 | 24818 ft | 390 kts | 249° |
| 2026-05-07 12:21 | 39.79091 | 2.16279 | 25268 ft | 392 kts | 249° |
| 2026-05-07 12:21 | 39.78265 | 2.12896 | 25741 ft | 393 kts | 249° |
| 2026-05-07 12:22 | 39.77451 | 2.09516 | 26339 ft | 390 kts | 249° |
| 2026-05-07 12:22 | 39.76652 | 2.06165 | 27024 ft | 385 kts | 249° |
| 2026-05-07 12:22 | 39.75866 | 2.02856 | 27702 ft | 381 kts | 249° |
| 2026-05-07 12:22 | 39.75098 | 1.99614 | 28322 ft | 379 kts | 248° |
| 2026-05-07 12:23 | 39.74324 | 1.96352 | 28920 ft | 377 kts | 248° |
| 2026-05-07 12:23 | 39.73554 | 1.93108 | 29543 ft | 374 kts | 248° |
| 2026-05-07 12:23 | 39.72791 | 1.89895 | 30162 ft | 370 kts | 248° |
| 2026-05-07 12:23 | 39.72029 | 1.86694 | 30543 ft | 372 kts | 247° |
| 2026-05-07 12:24 | 39.71263 | 1.83487 | 30786 ft | 371 kts | 247° |
| 2026-05-07 12:24 | 39.70499 | 1.80289 | 30954 ft | 370 kts | 247° |
| 2026-05-07 12:24 | 39.69736 | 1.77100 | 30947 ft | 369 kts | 247° |
| 2026-05-07 12:25 | 39.68208 | 1.70726 | 30969 ft | 374 kts | 247° |
| 2026-05-07 12:25 | 39.66619 | 1.64136 | 30974 ft | 390 kts | 247° |
| 2026-05-07 12:26 | 39.64984 | 1.57351 | 30963 ft | 401 kts | 247° |
| 2026-05-07 12:26 | 39.63318 | 1.50433 | 30951 ft | 402 kts | 247° |
| 2026-05-07 12:27 | 39.61645 | 1.43517 | 30956 ft | 401 kts | 247° |
| 2026-05-07 12:27 | 39.60148 | 1.36542 | 30937 ft | 408 kts | 257° |
| 2026-05-07 12:28 | 39.59757 | 1.29179 | 30957 ft | 409 kts | 259° |
| 2026-05-07 12:28 | 39.59392 | 1.21826 | 30953 ft | 407 kts | 258° |
| 2026-05-07 12:29 | 39.58997 | 1.14556 | 30950 ft | 406 kts | 258° |
| 2026-05-07 12:29 | 39.58581 | 1.07251 | 30961 ft | 405 kts | 258° |
| 2026-05-07 12:30 | 39.58158 | 0.99974 | 30964 ft | 405 kts | 258° |
| 2026-05-07 12:30 | 39.57731 | 0.92690 | 30961 ft | 404 kts | 258° |
| 2026-05-07 12:31 | 39.57303 | 0.85476 | 30965 ft | 404 kts | 257° |
| 2026-05-07 12:31 | 39.56868 | 0.78202 | 30962 ft | 404 kts | 257° |
| 2026-05-07 12:32 | 39.56429 | 0.70930 | 30958 ft | 404 kts | 257° |
| 2026-05-07 12:32 | 39.55985 | 0.63656 | 30961 ft | 405 kts | 257° |
| 2026-05-07 12:33 | 39.55312 | 0.52787 | 30961 ft | 405 kts | 258° |
| 2026-05-07 12:33 | 39.54855 | 0.45498 | 30962 ft | 406 kts | 258° |
| 2026-05-07 12:34 | 39.54394 | 0.38192 | 30964 ft | 407 kts | 258° |
| 2026-05-07 12:34 | 39.53927 | 0.30864 | 30964 ft | 408 kts | 258° |
| 2026-05-07 12:35 | 39.53451 | 0.23515 | 30962 ft | 409 kts | 257° |
| 2026-05-07 12:35 | 39.52973 | 0.16207 | 30965 ft | 410 kts | 257° |
| 2026-05-07 12:36 | 39.52485 | 0.08820 | 30965 ft | 412 kts | 257° |
| 2026-05-07 12:36 | 39.51992 | 0.01406 | 30968 ft | 413 kts | 257° |
| 2026-05-07 12:37 | 39.51493 | -0.06023 | 30972 ft | 415 kts | 257° |
| 2026-05-07 12:37 | 39.50990 | -0.13439 | 30980 ft | 416 kts | 258° |
| 2026-05-07 12:38 | 39.50478 | -0.20915 | 30972 ft | 417 kts | 258° |
| 2026-05-07 12:38 | 39.49960 | -0.28421 | 30961 ft | 418 kts | 258° |
| 2026-05-07 12:39 | 39.49437 | -0.35936 | 30965 ft | 420 kts | 258° |
| 2026-05-07 12:39 | 39.48966 | -0.43448 | 30959 ft | 425 kts | 263° |
| 2026-05-07 12:40 | 39.49256 | -0.47307 | 30975 ft | 436 kts | 273° |
| 2026-05-07 12:40 | 39.50017 | -0.51139 | 30974 ft | 445 kts | 281° |
| 2026-05-07 12:40 | 39.51291 | -0.54839 | 30970 ft | 456 kts | 291° |
| 2026-05-07 12:40 | 39.52866 | -0.58420 | 30977 ft | 458 kts | 292° |
| 2026-05-07 12:41 | 39.56124 | -0.65542 | 30972 ft | 460 kts | 293° |
| 2026-05-07 12:41 | 39.59348 | -0.72711 | 30972 ft | 460 kts | 292° |
| 2026-05-07 12:42 | 39.62524 | -0.79914 | 30982 ft | 460 kts | 292° |
| 2026-05-07 12:42 | 39.65665 | -0.87083 | 30969 ft | 459 kts | 292° |
| 2026-05-07 12:43 | 39.68820 | -0.94290 | 30972 ft | 459 kts | 292° |
| 2026-05-07 12:43 | 39.71973 | -1.01510 | 30963 ft | 459 kts | 292° |
| 2026-05-07 12:44 | 39.75110 | -1.08731 | 30966 ft | 458 kts | 292° |
| 2026-05-07 12:44 | 39.78255 | -1.15945 | 30966 ft | 458 kts | 292° |
| 2026-05-07 12:45 | 39.81384 | -1.23116 | 30979 ft | 458 kts | 292° |
| 2026-05-07 12:45 | 39.84518 | -1.30355 | 30968 ft | 459 kts | 292° |
| 2026-05-07 12:46 | 39.87647 | -1.37598 | 30987 ft | 460 kts | 292° |
| 2026-05-07 12:46 | 39.90781 | -1.44864 | 30973 ft | 455 kts | 293° |
| 2026-05-07 12:47 | 39.93826 | -1.51920 | 30982 ft | 441 kts | 292° |
| 2026-05-07 12:47 | 39.96840 | -1.58959 | 30152 ft | 450 kts | 292° |
| 2026-05-07 12:48 | 39.98364 | -1.62527 | 29402 ft | 450 kts | 293° |
| 2026-05-07 12:48 | 39.99865 | -1.66033 | 28644 ft | 447 kts | 294° |
| 2026-05-07 12:48 | 40.01378 | -1.69571 | 27887 ft | 446 kts | 294° |
| 2026-05-07 12:48 | 40.02889 | -1.73109 | 27149 ft | 446 kts | 294° |
| 2026-05-07 12:49 | 40.04396 | -1.76642 | 26429 ft | 445 kts | 295° |
| 2026-05-07 12:49 | 40.05901 | -1.80174 | 25733 ft | 446 kts | 295° |
| 2026-05-07 12:49 | 40.07412 | -1.83727 | 25044 ft | 445 kts | 296° |
| 2026-05-07 12:49 | 40.08909 | -1.87249 | 24370 ft | 442 kts | 296° |
| 2026-05-07 12:50 | 40.10397 | -1.90752 | 23708 ft | 438 kts | 296° |
| 2026-05-07 12:50 | 40.11872 | -1.94229 | 22964 ft | 435 kts | 296° |
| 2026-05-07 12:50 | 40.13313 | -1.97630 | 22211 ft | 431 kts | 296° |
| 2026-05-07 12:50 | 40.14762 | -2.01054 | 21476 ft | 428 kts | 296° |
| 2026-05-07 12:51 | 40.16198 | -2.04448 | 20749 ft | 425 kts | 296° |
| 2026-05-07 12:51 | 40.17620 | -2.07807 | 20040 ft | 415 kts | 296° |
| 2026-05-07 12:51 | 40.18996 | -2.11059 | 19345 ft | 403 kts | 296° |
| 2026-05-07 12:51 | 40.20333 | -2.14222 | 18666 ft | 392 kts | 296° |
| 2026-05-07 12:52 | 40.21634 | -2.17309 | 17961 ft | 383 kts | 296° |
| 2026-05-07 12:52 | 40.22905 | -2.20327 | 17211 ft | 375 kts | 296° |
| 2026-05-07 12:52 | 40.24155 | -2.23299 | 16478 ft | 369 kts | 296° |
| 2026-05-07 12:52 | 40.25382 | -2.26223 | 15763 ft | 363 kts | 295° |
| 2026-05-07 12:53 | 40.26196 | -2.29255 | 15044 ft | 353 kts | 275° |
| 2026-05-07 12:53 | 40.26310 | -2.32423 | 14391 ft | 346 kts | 267° |
| 2026-05-07 12:53 | 40.26279 | -2.35552 | 13715 ft | 342 kts | 266° |
| 2026-05-07 12:53 | 40.26229 | -2.38698 | 12960 ft | 339 kts | 266° |
| 2026-05-07 12:54 | 40.26187 | -2.41737 | 12238 ft | 338 kts | 266° |
| 2026-05-07 12:54 | 40.26153 | -2.44850 | 11555 ft | 345 kts | 267° |
| 2026-05-07 12:54 | 40.26129 | -2.47901 | 11307 ft | 325 kts | 267° |
| 2026-05-07 12:54 | 40.26112 | -2.50790 | 11022 ft | 309 kts | 267° |
| 2026-05-07 12:55 | 40.26095 | -2.53539 | 10752 ft | 295 kts | 266° |
| 2026-05-07 12:55 | 40.26079 | -2.56161 | 10510 ft | 282 kts | 266° |
| 2026-05-07 12:55 | 40.26063 | -2.58681 | 10248 ft | 271 kts | 266° |
| 2026-05-07 12:55 | 40.26048 | -2.61099 | 10013 ft | 260 kts | 266° |
| 2026-05-07 12:56 | 40.26042 | -2.63424 | 9768 ft | 253 kts | 267° |
| 2026-05-07 12:56 | 40.26037 | -2.65717 | 9505 ft | 251 kts | 266° |
| 2026-05-07 12:56 | 40.26031 | -2.67997 | 9242 ft | 249 kts | 266° |
| 2026-05-07 12:56 | 40.26024 | -2.70257 | 8974 ft | 247 kts | 266° |
| 2026-05-07 12:57 | 40.26017 | -2.72478 | 8728 ft | 246 kts | 266° |
| 2026-05-07 12:57 | 40.26010 | -2.74719 | 8470 ft | 245 kts | 266° |
| 2026-05-07 12:57 | 40.26003 | -2.76947 | 8213 ft | 244 kts | 266° |
| 2026-05-07 12:57 | 40.25995 | -2.79167 | 8054 ft | 244 kts | 266° |
| 2026-05-07 12:58 | 40.25985 | -2.81413 | 8023 ft | 250 kts | 266° |
| 2026-05-07 12:58 | 40.25976 | -2.83685 | 8009 ft | 248 kts | 266° |
| 2026-05-07 12:58 | 40.25967 | -2.85931 | 8001 ft | 245 kts | 266° |
| 2026-05-07 12:58 | 40.25958 | -2.88157 | 7993 ft | 243 kts | 266° |
| 2026-05-07 12:59 | 40.25949 | -2.90370 | 8007 ft | 243 kts | 266° |
| 2026-05-07 12:59 | 40.25939 | -2.92583 | 7986 ft | 242 kts | 266° |
| 2026-05-07 12:59 | 40.25927 | -2.94780 | 7989 ft | 241 kts | 266° |
| 2026-05-07 12:59 | 40.25916 | -2.96942 | 7985 ft | 240 kts | 266° |
| 2026-05-07 13:00 | 40.25903 | -2.99131 | 7986 ft | 240 kts | 266° |
| 2026-05-07 13:00 | 40.25891 | -3.01318 | 7992 ft | 240 kts | 266° |
| 2026-05-07 13:00 | 40.25879 | -3.03509 | 7988 ft | 241 kts | 266° |
| 2026-05-07 13:00 | 40.25867 | -3.05701 | 7987 ft | 241 kts | 266° |
| 2026-05-07 13:01 | 40.25854 | -3.07906 | 7990 ft | 243 kts | 266° |
| 2026-05-07 13:01 | 40.25839 | -3.10121 | 7987 ft | 244 kts | 266° |
| 2026-05-07 13:01 | 40.25824 | -3.12345 | 7982 ft | 246 kts | 266° |
| 2026-05-07 13:01 | 40.25886 | -3.14621 | 7713 ft | 254 kts | 275° |
| 2026-05-07 13:02 | 40.26180 | -3.16888 | 7417 ft | 258 kts | 278° |
| 2026-05-07 13:02 | 40.26516 | -3.19209 | 7111 ft | 260 kts | 278° |
| 2026-05-07 13:02 | 40.26844 | -3.21549 | 6829 ft | 262 kts | 277° |
| 2026-05-07 13:02 | 40.27169 | -3.23913 | 6538 ft | 265 kts | 277° |
| 2026-05-07 13:03 | 40.27491 | -3.26301 | 6233 ft | 267 kts | 277° |
| 2026-05-07 13:03 | 40.27809 | -3.28704 | 5963 ft | 266 kts | 277° |
| 2026-05-07 13:03 | 40.28121 | -3.31060 | 5680 ft | 259 kts | 277° |
| 2026-05-07 13:03 | 40.28475 | -3.33338 | 5417 ft | 253 kts | 284° |
| 2026-05-07 13:04 | 40.28858 | -3.34771 | 5251 ft | 249 kts | 288° |
| 2026-05-07 13:04 | 40.29470 | -3.36857 | 4980 ft | 242 kts | 290° |
| 2026-05-07 13:04 | 40.30651 | -3.39284 | 4647 ft | 241 kts | 315° |
| 2026-05-07 13:04 | 40.31906 | -3.40757 | 4414 ft | 245 kts | 320° |
| 2026-05-07 13:05 | 40.33243 | -3.42150 | 4165 ft | 245 kts | 321° |
| 2026-05-07 13:05 | 40.34158 | -3.43071 | 4056 ft | 245 kts | 322° |
| 2026-05-07 13:05 | 40.35504 | -3.44426 | 3996 ft | 243 kts | 321° |
| 2026-05-07 13:05 | 40.36843 | -3.45783 | 4003 ft | 243 kts | 321° |
| 2026-05-07 13:06 | 40.38140 | -3.47087 | 3975 ft | 232 kts | 322° |
| 2026-05-07 13:06 | 40.39415 | -3.48355 | 3712 ft | 227 kts | 321° |
| 2026-05-07 13:06 | 40.40640 | -3.49604 | 3437 ft | 217 kts | 321° |
| 2026-05-07 13:06 | 40.41799 | -3.50788 | 3150 ft | 204 kts | 321° |
| 2026-05-07 13:07 | 40.42884 | -3.51896 | 2861 ft | 192 kts | 322° |
| 2026-05-07 13:07 | 40.43926 | -3.52961 | 2618 ft | 190 kts | 323° |
| 2026-05-07 13:07 | 40.44967 | -3.54021 | 2333 ft | 185 kts | 324° |
| 2026-05-07 13:07 | 40.45949 | -3.55021 | 2073 ft | 173 kts | 324° |
| 2026-05-07 13:08 | 40.46830 | -3.55917 | 1973 ft | 143 kts | 321° |
| 2026-05-07 13:08 | 40.47518 | -3.56617 | 1993 ft | 104 kts | 322° |
| 2026-05-07 13:08 | 40.47959 | -3.57061 | 2000 ft | 39 kts | 322° |
| 2026-05-07 13:08 | 40.48102 | -3.57239 | 2004 ft | 25 kts | 302° |
| 2026-05-07 13:09 | 40.48168 | -3.57406 | 2001 ft | 16 kts | 290° |
| 2026-05-07 13:09 | 40.48173 | -3.57451 | 2001 ft | 1 kts | 266° |
| 2026-05-07 13:12 | 40.48173 | -3.57453 | 2001 ft | 1 kts | 266° |
| 2026-05-07 13:12 | 40.48160 | -3.57481 | 1998 ft | 8 kts | 224° |
| 2026-05-07 13:13 | 40.48110 | -3.57481 | 2000 ft | 9 kts | 150° |
| 2026-05-07 13:13 | 40.48062 | -3.57435 | 2001 ft | 8 kts | 142° |
| 2026-05-07 13:13 | 40.48016 | -3.57388 | 2002 ft | 8 kts | 142° |
| 2026-05-07 13:13 | 40.47973 | -3.57343 | 2003 ft | 8 kts | 141° |
| 2026-05-07 13:14 | 40.47930 | -3.57298 | 2003 ft | 8 kts | 143° |
| 2026-05-07 13:14 | 40.47885 | -3.57257 | 2002 ft | 9 kts | 143° |
| 2026-05-07 13:14 | 40.47827 | -3.57197 | 2000 ft | 13 kts | 142° |
| 2026-05-07 13:14 | 40.47754 | -3.57120 | 1998 ft | 14 kts | 141° |
| 2026-05-07 13:15 | 40.47717 | -3.57080 | 1997 ft | 6 kts | 141° |
| 2026-05-07 13:15 | 40.47685 | -3.57051 | 1996 ft | 1 kts | 145° |
| 2026-05-07 13:15 | 40.47675 | -3.57042 | 1996 ft | 2 kts | 145° |
| 2026-05-07 13:15 | 40.47661 | -3.57045 | 1996 ft | 2 kts | 206° |
| 2026-05-07 13:16 | 40.47651 | -3.57060 | 1995 ft | 2 kts | 232° |
| 2026-05-07 13:16 | 40.47641 | -3.57075 | 1996 ft | 2 kts | 230° |
| 2026-05-07 13:16 | 40.47632 | -3.57089 | 1996 ft | 2 kts | 228° |
| 2026-05-07 13:16 | 40.47622 | -3.57103 | 1996 ft | 2 kts | 227° |
| 2026-05-07 13:17 | 40.47601 | -3.57137 | 1996 ft | 7 kts | 231° |
| 2026-05-07 13:17 | 40.47567 | -3.57191 | 1996 ft | 8 kts | 225° |
| 2026-05-07 13:17 | 40.47518 | -3.57192 | 1994 ft | 8 kts | 150° |
| 2026-05-07 13:17 | 40.47463 | -3.57167 | 1992 ft | 9 kts | 178° |
| 2026-05-07 13:18 | 40.47401 | -3.57172 | 1991 ft | 9 kts | 170° |
| 2026-05-07 13:18 | 40.47352 | -3.57141 | 1990 ft | 1 kts | 158° |
| 2026-05-07 13:18 | 40.47343 | -3.57135 | 1990 ft | 2 kts | 156° |
| 2026-05-07 13:18 | 40.47330 | -3.57128 | 1988 ft | 0 kts | 156° |